This is the latest recevied weather packets stored in our database for station/object OK2ILA-14. If no packets are shown the sender has not sent any weather packets the latest 10 day(s).
| Time | Temp. | Humidity | Pressure | Rain* | Wind** | Luminosity | Snow |
|---|---|---|---|---|---|---|---|
| 1777144452 | 12.78° C | 47% | 1009.8 hPa | - | - | - | - |
| 1777143851 | 13.89° C | 45% | 1009.8 hPa | - | - | - | - |
| 1777143250 | 15° C | 42% | 1009.7 hPa | - | - | - | - |
| 1777142649 | 14.44° C | 44% | 1009.8 hPa | - | - | - | - |
| 1777142049 | 14.44° C | 44% | 1009.7 hPa | - | - | - | - |
| 1777141449 | 14.44° C | 45% | 1009.7 hPa | - | - | - | - |
| 1777140849 | 13.89° C | 45% | 1009.7 hPa | - | - | - | - |
| 1777140249 | 14.44° C | 44% | 1009.8 hPa | - | - | - | - |
| 1777139648 | 15.56° C | 41% | 1009.7 hPa | - | - | - | - |
| 1777139049 | 16.67° C | 39% | 1009.7 hPa | - | - | - | - |
| 1777138448 | 17.78° C | 37% | 1009.6 hPa | - | - | - | - |
| 1777137856 | 18.33° C | 36% | 1009.5 hPa | - | - | - | - |
| 1777136648 | 19.44° C | 34% | 1009.5 hPa | - | - | - | - |
| 1777136054 | 20° C | 34% | 1009.4 hPa | - | - | - | - |
| 1777135454 | 20.56° C | 34% | 1009.4 hPa | - | - | - | - |
| 1777134848 | 21.11° C | 34% | 1009.5 hPa | - | - | - | - |
| 1777134248 | 21.11° C | 34% | 1009.5 hPa | - | - | - | - |
| 1777133650 | 21.67° C | 33% | 1009.6 hPa | - | - | - | - |
| 1777133047 | 21.67° C | 32% | 1009.5 hPa | - | - | - | - |
| 1777132447 | 21.67° C | 32% | 1009.5 hPa | - | - | - | - |
| 1777131849 | 22.22° C | 32% | 1009.6 hPa | - | - | - | - |
| 1777131245 | 22.22° C | 32% | 1009.6 hPa | - | - | - | - |
| 1777130645 | 22.22° C | 31% | 1009.6 hPa | - | - | - | - |
| 1777130045 | 22.22° C | 32% | 1009.6 hPa | - | - | - | - |
| 1777129445 | 22.78° C | 31% | 1009.6 hPa | - | - | - | - |
* Rain since midnight (hover to see other rain measurements)
** Current wind speed in m/s (hover to see current wind gust speed)